Decoded Metar for GCRR (LANZAROTE in SPAIN) (IATA:ACE) | Meteo·Mobile Aviation Weather
aviador You're here:

GCRR Decoded Metar

LANZAROTE in SPAIN
Report Time2019-03-23 08:00:00
UTC Time2019-03-23 08:23:12
Flight Rules vfr VFR
Wind360° at 18 kt
W.Decomp.*RWY 03: 16.3 kt HW 7.6 kt LCW
Visibility9999 m
Phenomena:N/A
Clouds:Few 020 Hf
Expected CloudBase > 1,600 ft AGL from Temp-Dew spread
CeilingNone
Temp17°C (ISA +2)
Dew Point13°C (77% RH)
AAT11.4°C
QNH1013 hPa
Density Alt597 ft
Elevation131 ft
Report Wrong Elevation
Raw Report
GCRR 230800Z 36018KT 9999 FEW020 17/13 Q1013=

Extra information for GCRR:More info

Metar Taf Metar & Taf Last 4 Metars F.Rules Stats Wind Profile Meteogram Temp Stats Airport Information Weather charts Add Link Nearby VenuesMetar ALERT Operation Metar Decoded Social comments